createdAt,value
2022-11-19T00:02:10.139Z,23.58
2022-11-19T00:04:37.499Z,22.10
2022-11-19T00:07:05.981Z,21.17
2022-11-19T00:09:34.545Z,21.25
2022-11-19T00:12:20.504Z,21.27
2022-11-19T00:14:48.897Z,22.38
2022-11-19T00:17:16.305Z,21.40
2022-11-19T00:19:43.658Z,21.27
2022-11-19T00:22:11.787Z,21.20
2022-11-19T00:24:42.147Z,20.92
2022-11-19T00:27:10.978Z,22.27
2022-11-19T00:29:39.701Z,21.08
2022-11-19T00:32:08.199Z,21.00
2022-11-19T00:34:35.545Z,20.73
2022-11-19T00:37:03.100Z,20.35
2022-11-19T00:39:30.431Z,19.45
2022-11-19T00:41:58.146Z,19.83
2022-11-19T00:44:33.943Z,19.73
2022-11-19T00:47:05.018Z,20.55
2022-11-19T00:49:33.307Z,19.52
2022-11-19T00:52:00.705Z,19.70
2022-11-19T00:54:28.241Z,21.27
2022-11-19T00:56:55.758Z,20.05
2022-11-19T00:59:22.866Z,19.27
2022-11-19T01:01:51.667Z,19.00
2022-11-19T01:04:20.038Z,19.90
2022-11-19T01:06:49.467Z,20.52
2022-11-19T01:09:17.246Z,20.05
2022-11-19T01:11:44.907Z,19.27
2022-11-19T01:14:12.706Z,20.08
2022-11-19T01:16:41.738Z,21.15
2022-11-19T01:19:11.547Z,20.02
2022-11-19T01:21:39.181Z,20.45
2022-11-19T01:24:07.107Z,20.45
2022-11-19T01:26:34.834Z,21.23
2022-11-19T01:29:03.421Z,20.27
2022-11-19T01:31:31.158Z,20.33
2022-11-19T01:34:01.338Z,21.17
2022-11-19T01:36:30.190Z,20.52
2022-11-19T01:38:58.886Z,21.15
2022-11-19T01:41:33.380Z,21.90
2022-11-19T01:44:06.658Z,21.23
2022-11-19T01:49:10.989Z,23.55
2022-11-19T01:51:48.066Z,22.77
2022-11-19T01:54:43.418Z,22.85
2022-11-19T01:57:14.713Z,22.17
2022-11-19T01:59:43.785Z,24.30
2022-11-19T02:02:13.079Z,23.58
2022-11-19T02:04:41.306Z,25.52
2022-11-19T02:07:12.145Z,21.85
2022-11-19T02:09:41.522Z,24.13
2022-11-19T02:12:50.589Z,23.75
2022-11-19T02:15:29.547Z,22.92
2022-11-19T02:18:30.258Z,23.23
2022-11-19T02:21:40.819Z,23.50
2022-11-19T02:24:44.746Z,23.15
2022-11-19T02:27:29.235Z,24.92
2022-11-19T02:30:21.283Z,23.27
2022-11-19T02:32:59.178Z,23.58
2022-11-19T02:35:50.077Z,23.55
2022-11-19T02:38:41.867Z,24.05
2022-11-19T02:41:37.981Z,23.45
2022-11-19T02:45:19.147Z,24.45
2022-11-19T02:48:00.906Z,24.77
2022-11-19T02:50:42.079Z,23.48
2022-11-19T02:53:11.189Z,23.40
2022-11-19T02:55:39.859Z,23.83
2022-11-19T02:58:37.468Z,23.75
2022-11-19T03:01:26.833Z,23.30
2022-11-19T03:04:14.867Z,24.63
2022-11-19T03:06:42.140Z,25.13
2022-11-19T03:09:09.834Z,23.75
2022-11-19T03:11:37.147Z,24.42
2022-11-19T03:14:48.619Z,24.23
2022-11-19T03:17:32.388Z,23.27
2022-11-19T03:20:15.500Z,24.13
2022-11-19T03:22:58.638Z,24.05
2022-11-19T03:25:28.067Z,25.10
2022-11-19T03:28:02.355Z,24.02
2022-11-19T03:30:31.763Z,23.58
2022-11-19T03:33:07.146Z,23.55
2022-11-19T03:35:43.738Z,22.98
2022-11-19T03:38:17.178Z,24.52
2022-11-19T03:40:53.058Z,22.83
2022-11-19T03:43:24.699Z,24.67
2022-11-19T03:45:54.706Z,22.85
2022-11-19T03:48:23.786Z,22.17
2022-11-19T03:50:56.946Z,23.83
2022-11-19T03:53:24.786Z,23.52
2022-11-19T03:56:07.268Z,22.27
2022-11-19T03:58:42.920Z,23.08
2022-11-19T04:01:16.662Z,23.02
2022-11-19T04:04:03.679Z,24.15
2022-11-19T04:06:31.206Z,24.30
2022-11-19T04:08:58.688Z,23.45
2022-11-19T04:13:51.999Z,21.98
2022-11-19T04:16:19.479Z,21.85
2022-11-19T04:18:47.018Z,21.45
2022-11-19T04:21:14.458Z,20.80
2022-11-19T04:23:45.058Z,20.67
2022-11-19T04:26:18.658Z,19.77
2022-11-19T04:28:45.938Z,19.73
2022-11-19T04:31:17.653Z,18.75
2022-11-19T04:33:45.580Z,19.75
2022-11-19T04:36:12.939Z,18.33
2022-11-19T04:38:40.387Z,19.42
2022-11-19T04:41:08.980Z,18.63
2022-11-19T04:43:36.339Z,18.23
2022-11-19T04:46:04.937Z,19.17
2022-11-19T04:48:32.266Z,18.55
2022-11-19T04:50:59.699Z,17.60
2022-11-19T04:53:28.258Z,17.23
2022-11-19T04:55:55.657Z,16.90
2022-11-19T04:58:23.219Z,17.00
2022-11-19T05:00:51.666Z,17.35
2022-11-19T05:03:19.111Z,16.77
2022-11-19T05:05:47.660Z,17.67
2022-11-19T05:08:14.986Z,15.75
2022-11-19T05:10:44.786Z,16.55
2022-11-19T05:13:13.347Z,17.48
2022-11-19T05:15:40.499Z,16.80
2022-11-19T05:18:08.987Z,16.92
2022-11-19T05:20:36.467Z,16.70
2022-11-19T05:23:03.867Z,16.90
2022-11-19T05:25:32.384Z,16.98
2022-11-19T05:28:01.947Z,18.02
2022-11-19T05:30:29.418Z,16.48
2022-11-19T05:32:58.786Z,17.02
2022-11-19T05:35:26.298Z,17.70
2022-11-19T05:37:55.700Z,16.95
2022-11-19T05:40:23.498Z,17.55
2022-11-19T05:42:51.738Z,17.55
2022-11-19T05:45:20.226Z,16.98
2022-11-19T05:47:48.927Z,17.42
2022-11-19T05:50:17.698Z,17.35
2022-11-19T05:52:46.419Z,16.95
2022-11-19T05:55:21.156Z,18.33
2022-11-19T05:57:48.988Z,17.08
2022-11-19T06:00:18.460Z,18.50
2022-11-19T06:02:45.800Z,18.70
2022-11-19T06:05:13.099Z,18.05
2022-11-19T06:07:40.669Z,17.70
2022-11-19T06:10:14.778Z,18.77
2022-11-19T06:12:45.933Z,20.65
2022-11-19T06:15:15.298Z,21.65
2022-11-19T06:17:43.817Z,21.73
2022-11-19T06:20:11.579Z,21.70
2022-11-19T06:22:40.386Z,22.45
2022-11-19T06:25:08.271Z,21.83
2022-11-19T06:27:35.739Z,21.00
2022-11-19T06:30:03.629Z,19.95
2022-11-19T06:32:30.991Z,20.73
2022-11-19T06:34:58.502Z,20.67
2022-11-19T06:37:26.018Z,22.02
2022-11-19T06:39:54.547Z,21.23
2022-11-19T06:42:37.720Z,21.90
2022-11-19T06:45:11.418Z,22.80
2022-11-19T06:47:40.498Z,21.80
2022-11-19T06:50:10.629Z,21.77
2022-11-19T06:52:38.037Z,21.80
2022-11-19T06:55:06.831Z,21.98
2022-11-19T06:57:34.259Z,26.48
2022-11-19T07:00:08.419Z,24.77
2022-11-19T07:02:35.859Z,33.50
2022-11-19T07:05:02.861Z,26.83
2022-11-19T07:07:30.439Z,26.17
2022-11-19T07:09:58.779Z,26.98
2022-11-19T07:12:27.669Z,34.05
2022-11-19T07:14:59.736Z,23.35
2022-11-19T07:17:31.308Z,27.20
2022-11-19T07:19:58.819Z,29.70
2022-11-19T07:22:38.538Z,25.95
2022-11-19T07:25:06.507Z,26.55
2022-11-19T07:27:34.019Z,26.30
2022-11-19T07:30:04.506Z,27.20
2022-11-19T07:32:33.261Z,25.38
2022-11-19T07:35:02.667Z,24.88
2022-11-19T07:37:29.907Z,23.73
2022-11-19T07:39:57.458Z,25.67
2022-11-19T07:42:43.623Z,24.45
2022-11-19T07:45:22.304Z,24.52
2022-11-19T07:47:50.019Z,26.05
2022-11-19T07:50:18.210Z,24.83
2022-11-19T07:52:45.579Z,24.70
2022-11-19T07:55:12.906Z,23.67
2022-11-19T07:57:40.403Z,23.67
2022-11-19T08:00:08.907Z,24.08
2022-11-19T08:02:37.107Z,23.60
2022-11-19T08:05:13.059Z,22.75
2022-11-19T08:07:41.818Z,22.15
2022-11-19T08:10:10.741Z,24.65
2022-11-19T08:12:38.103Z,23.83
2022-11-19T08:15:05.993Z,22.45
2022-11-19T08:17:52.106Z,22.17
2022-11-19T08:20:20.760Z,21.13
2022-11-19T08:22:49.219Z,20.95
2022-11-19T08:25:16.778Z,22.55
2022-11-19T08:27:50.259Z,21.70
2022-11-19T08:30:17.498Z,21.80
2022-11-19T08:32:44.667Z,22.33
2022-11-19T08:35:11.739Z,21.50
2022-11-19T08:37:39.107Z,19.95
2022-11-19T08:40:07.029Z,17.90
2022-11-19T08:42:52.942Z,20.27
2022-11-19T08:45:22.538Z,18.85
2022-11-19T08:47:49.867Z,17.70
2022-11-19T08:50:17.386Z,17.95
2022-11-19T08:52:44.758Z,18.30
2022-11-19T08:55:11.728Z,17.80
2022-11-19T08:57:40.166Z,16.98
2022-11-19T09:00:08.320Z,17.27
2022-11-19T09:02:35.759Z,16.77
2022-11-19T09:05:03.158Z,16.23
2022-11-19T09:07:31.584Z,17.33
2022-11-19T09:09:58.686Z,17.30
2022-11-19T09:12:25.730Z,17.02
2022-11-19T09:14:52.877Z,16.88
2022-11-19T09:17:20.398Z,16.10
2022-11-19T09:19:48.441Z,13.98
2022-11-19T09:22:15.798Z,15.13
2022-11-19T09:24:42.838Z,16.00
2022-11-19T09:27:10.209Z,15.18
2022-11-19T09:29:37.647Z,15.73
2022-11-19T09:32:05.126Z,15.27
2022-11-19T09:34:32.638Z,14.40
2022-11-19T09:37:00.126Z,14.52
2022-11-19T09:39:27.519Z,13.95
2022-11-19T09:42:11.799Z,15.65
2022-11-19T09:45:00.959Z,15.73
2022-11-19T09:47:46.280Z,15.30
2022-11-19T09:50:31.606Z,14.02
2022-11-19T09:53:02.918Z,15.30
2022-11-19T09:55:35.085Z,16.17
2022-11-19T09:58:06.416Z,14.48
2022-11-19T10:00:34.728Z,14.35
2022-11-19T10:03:11.752Z,15.15
2022-11-19T10:06:07.038Z,16.15
2022-11-19T10:08:55.850Z,16.02
2022-11-19T10:11:38.012Z,16.48
2022-11-19T10:14:28.002Z,19.73
2022-11-19T10:17:04.641Z,16.10
2022-11-19T10:20:04.280Z,14.77
2022-11-19T10:22:40.286Z,14.88
2022-11-19T10:25:23.477Z,14.55
2022-11-19T10:27:57.598Z,14.50
2022-11-19T10:30:27.285Z,13.85
2022-11-19T10:33:01.922Z,14.07
2022-11-19T10:35:36.330Z,14.75
2022-11-19T10:38:07.958Z,14.45
2022-11-19T10:41:14.492Z,14.35
2022-11-19T10:44:07.798Z,14.43
2022-11-19T10:46:37.037Z,15.23
2022-11-19T10:49:11.048Z,15.38
2022-11-19T10:51:41.765Z,15.05
2022-11-19T10:54:30.694Z,16.48
2022-11-19T10:57:00.757Z,17.80
2022-11-19T10:59:33.240Z,12.98
2022-11-19T11:02:46.046Z,14.98
2022-11-19T11:05:17.077Z,14.65
2022-11-19T11:07:54.530Z,14.30
2022-11-19T11:10:31.404Z,15.30
2022-11-19T11:13:25.278Z,15.75
2022-11-19T11:18:27.729Z,13.20
2022-11-19T11:21:00.742Z,14.05
2022-11-19T11:23:33.572Z,13.93
2022-11-19T11:26:10.959Z,21.88
2022-11-19T11:28:58.486Z,22.25
2022-11-19T11:31:39.807Z,18.23
2022-11-19T11:34:36.038Z,15.52
2022-11-19T11:37:10.557Z,18.45
2022-11-19T11:39:46.602Z,15.00
2022-11-19T11:42:21.958Z,14.80
2022-11-19T11:44:59.758Z,13.70
2022-11-19T11:47:33.848Z,13.93
2022-11-19T11:50:21.918Z,15.20
2022-11-19T11:52:54.841Z,14.65
2022-11-19T11:55:26.000Z,14.20
2022-11-19T11:58:05.171Z,13.88
2022-11-19T12:00:46.958Z,13.45
2022-11-19T12:03:22.730Z,13.82
2022-11-19T12:06:19.358Z,10.90
2022-11-19T12:09:16.304Z,11.18
2022-11-19T12:12:26.471Z,10.90
2022-11-19T12:15:27.066Z,11.50
2022-11-19T12:18:22.858Z,11.57
2022-11-19T12:21:48.782Z,11.52
2022-11-19T12:24:34.899Z,10.70
2022-11-19T12:27:05.227Z,11.60
2022-11-19T12:29:53.433Z,10.88
2022-11-19T12:32:50.039Z,10.57
2022-11-19T12:35:31.881Z,10.50
2022-11-19T12:38:26.257Z,10.35
2022-11-19T12:41:08.238Z,10.02
2022-11-19T12:43:51.758Z,10.13
2022-11-19T12:49:23.778Z,10.32
2022-11-19T12:52:28.824Z,9.32
2022-11-19T12:55:15.083Z,11.10
2022-11-19T12:58:01.932Z,9.55
2022-11-19T13:00:40.812Z,10.02
2022-11-19T13:03:21.879Z,10.55
2022-11-19T13:06:26.118Z,11.02
2022-11-19T13:09:07.638Z,11.38
2022-11-19T13:11:45.839Z,11.98
2022-11-19T13:14:41.878Z,15.88
2022-11-19T13:17:20.478Z,11.95
2022-11-19T13:19:54.166Z,12.43
2022-11-19T13:22:34.295Z,10.75
2022-11-19T13:25:50.198Z,11.25
2022-11-19T13:28:36.361Z,11.65
2022-11-19T13:31:13.797Z,11.10
2022-11-19T13:33:50.398Z,10.82
2022-11-19T13:36:44.758Z,11.85
2022-11-19T13:39:23.231Z,10.77
2022-11-19T13:42:12.247Z,12.35
2022-11-19T13:44:46.157Z,11.50
2022-11-19T13:47:34.844Z,11.65
2022-11-19T13:50:12.206Z,20.63
2022-11-19T13:52:46.920Z,13.13
2022-11-19T13:55:35.479Z,11.20
2022-11-19T13:58:27.238Z,11.52
2022-11-19T14:01:10.140Z,11.35
2022-11-19T14:04:04.531Z,11.50
2022-11-19T14:06:56.283Z,11.70
2022-11-19T14:09:36.838Z,16.13
2022-11-19T14:12:29.367Z,15.63
2022-11-19T14:15:51.879Z,13.30
2022-11-19T14:18:48.966Z,10.52
2022-11-19T14:21:43.233Z,10.60
2022-11-19T14:24:45.320Z,10.95
2022-11-19T14:27:18.718Z,10.88
2022-11-19T14:32:13.840Z,11.07
2022-11-19T14:35:09.958Z,11.48
2022-11-19T14:37:56.118Z,11.10
2022-11-19T14:40:31.159Z,11.23
2022-11-19T14:43:20.424Z,12.02
2022-11-19T14:46:14.318Z,10.95
2022-11-19T14:51:15.367Z,12.60
2022-11-19T14:53:56.131Z,13.20
2022-11-19T14:56:27.608Z,12.80
2022-11-19T14:59:10.337Z,14.00
2022-11-19T15:02:07.491Z,14.10
2022-11-19T15:04:44.899Z,11.98
2022-11-19T15:07:35.462Z,12.90
2022-11-19T15:10:11.599Z,12.32
2022-11-19T15:13:04.299Z,14.90
2022-11-19T15:15:39.968Z,14.07
2022-11-19T15:18:54.007Z,13.82
2022-11-19T15:21:30.358Z,13.38
2022-11-19T15:24:25.998Z,13.73
2022-11-19T15:27:25.718Z,13.77
2022-11-19T15:30:20.609Z,13.63
2022-11-19T15:33:13.851Z,15.82
2022-11-19T15:36:00.326Z,26.13
2022-11-19T15:38:42.878Z,36.30
2022-11-19T15:41:17.646Z,44.42
2022-11-19T15:43:52.077Z,39.00
2022-11-19T15:46:30.592Z,33.78
2022-11-19T15:49:19.052Z,33.00
2022-11-19T15:52:00.238Z,31.35
2022-11-19T15:54:30.078Z,32.15
2022-11-19T15:57:23.978Z,33.58
2022-11-19T16:00:03.889Z,33.60
2022-11-19T16:02:35.280Z,27.77
2022-11-19T16:05:06.177Z,19.45
2022-11-19T16:07:36.173Z,16.65
2022-11-19T16:10:08.216Z,18.75
2022-11-19T16:13:15.461Z,14.85
2022-11-19T16:16:18.959Z,16.50
2022-11-19T16:18:52.927Z,16.30
2022-11-19T16:21:27.248Z,17.60
2022-11-19T16:24:17.358Z,16.60
2022-11-19T16:26:45.368Z,17.33
2022-11-19T16:29:36.518Z,17.58
2022-11-19T16:32:09.440Z,18.52
2022-11-19T16:34:39.519Z,18.52
2022-11-19T16:37:07.172Z,18.67
2022-11-19T16:39:34.927Z,20.67
2022-11-19T16:42:18.007Z,19.90
2022-11-19T16:44:54.407Z,21.10
2022-11-19T16:47:40.559Z,22.15
2022-11-19T16:50:42.385Z,22.15
2022-11-19T16:53:47.250Z,23.98
2022-11-19T16:56:17.038Z,25.95
2022-11-19T16:58:46.878Z,26.60
2022-11-19T17:01:18.404Z,27.13
2022-11-19T17:03:46.019Z,26.15
2022-11-19T17:06:26.085Z,24.95
2022-11-19T17:09:01.329Z,25.02
2022-11-19T17:12:10.409Z,25.63
2022-11-19T17:14:47.330Z,25.23
2022-11-19T17:17:35.580Z,24.85
2022-11-19T17:20:24.286Z,20.70
2022-11-19T17:22:51.930Z,23.80
2022-11-19T17:25:20.159Z,23.02
2022-11-19T17:27:53.608Z,25.27
2022-11-19T17:30:31.517Z,22.70
2022-11-19T17:33:05.686Z,24.60
2022-11-19T17:35:52.000Z,23.23
2022-11-19T17:38:31.598Z,23.58
2022-11-19T17:41:01.007Z,24.80
2022-11-19T17:43:53.519Z,23.63
2022-11-19T17:46:24.401Z,24.92
2022-11-19T17:48:53.650Z,25.48
2022-11-19T17:51:23.638Z,23.50
2022-11-19T17:53:52.738Z,24.25
2022-11-19T17:56:27.359Z,22.58
2022-11-19T17:58:56.159Z,22.88
2022-11-19T18:01:23.973Z,21.42
2022-11-19T18:03:51.606Z,22.95
2022-11-19T18:06:20.059Z,23.15
2022-11-19T18:08:50.967Z,23.85
2022-11-19T18:11:22.847Z,23.77
2022-11-19T18:13:56.009Z,24.52
2022-11-19T18:18:57.399Z,25.02
2022-11-19T18:21:29.199Z,23.38
2022-11-19T18:24:00.572Z,25.45
2022-11-19T18:26:38.694Z,25.10
2022-11-19T18:29:09.367Z,24.15
2022-11-19T18:31:45.526Z,25.80
2022-11-19T18:34:25.463Z,28.17
2022-11-19T18:36:55.130Z,25.77
2022-11-19T18:39:25.419Z,25.48
2022-11-19T18:41:55.278Z,26.88
2022-11-19T18:44:35.240Z,26.75
2022-11-19T18:47:12.397Z,28.63
2022-11-19T18:49:42.708Z,27.42
2022-11-19T18:52:15.841Z,27.25
2022-11-19T18:57:14.149Z,27.17
2022-11-19T18:59:42.367Z,27.58
2022-11-19T19:02:13.041Z,28.10
2022-11-19T19:04:48.332Z,28.88
2022-11-19T19:07:22.218Z,30.15
2022-11-19T19:09:52.888Z,27.35
2022-11-19T19:12:21.960Z,27.20
2022-11-19T19:14:56.663Z,27.98
2022-11-19T19:17:26.306Z,29.20
2022-11-19T19:19:58.540Z,32.70
2022-11-19T19:22:32.121Z,33.60
2022-11-19T19:25:02.728Z,35.20
2022-11-19T19:27:38.807Z,35.88
2022-11-19T19:30:06.839Z,37.05
2022-11-19T19:32:40.410Z,41.05
2022-11-19T19:35:08.158Z,41.60
2022-11-19T19:37:43.318Z,41.65
2022-11-19T19:40:11.968Z,46.15
2022-11-19T19:42:41.409Z,47.95
2022-11-19T19:45:10.698Z,40.85
2022-11-19T19:47:37.959Z,40.15
2022-11-19T19:50:06.046Z,39.10
2022-11-19T19:52:33.727Z,37.97
2022-11-19T19:55:03.061Z,38.05
2022-11-19T19:57:31.366Z,38.70
2022-11-19T20:00:01.721Z,38.35
2022-11-19T20:02:30.958Z,37.45
2022-11-19T20:05:00.598Z,35.85
2022-11-19T20:07:33.059Z,36.90
2022-11-19T20:10:07.888Z,34.45
2022-11-19T20:12:54.808Z,34.85
2022-11-19T20:15:30.376Z,34.97
2022-11-19T20:18:00.415Z,35.45
2022-11-19T20:20:28.695Z,35.10
2022-11-19T20:22:59.998Z,34.75
2022-11-19T20:25:30.702Z,36.25
2022-11-19T20:28:01.357Z,35.40
2022-11-19T20:30:33.215Z,36.30
2022-11-19T20:33:04.738Z,37.22
2022-11-19T20:35:37.358Z,34.95
2022-11-19T20:38:08.423Z,36.15
2022-11-19T20:40:39.849Z,39.72
2022-11-19T20:43:31.641Z,37.58
2022-11-19T20:46:13.038Z,36.90
2022-11-19T20:48:44.135Z,38.58
2022-11-19T20:51:15.058Z,40.13
2022-11-19T20:53:46.059Z,41.38
2022-11-19T20:56:17.865Z,39.83
2022-11-19T20:58:48.480Z,45.17
2022-11-19T21:01:16.526Z,44.85
2022-11-19T21:03:46.247Z,43.38
2022-11-19T21:06:14.805Z,51.28
2022-11-19T21:08:42.399Z,51.70
2022-11-19T21:11:12.448Z,48.58
2022-11-19T21:13:40.957Z,51.95
2022-11-19T21:16:20.071Z,55.63
2022-11-19T21:18:47.958Z,62.90
2022-11-19T21:21:17.038Z,45.95
2022-11-19T21:23:46.597Z,51.25
2022-11-19T21:26:14.618Z,52.42
2022-11-19T21:28:44.801Z,45.53
2022-11-19T21:31:16.365Z,48.30
2022-11-19T21:33:49.975Z,51.28
2022-11-19T21:36:17.838Z,51.88
2022-11-19T21:38:45.277Z,56.83
2022-11-19T21:41:13.047Z,51.70
2022-11-19T21:43:41.168Z,53.20
2022-11-19T21:46:08.767Z,51.65
2022-11-19T21:48:39.363Z,54.22
2022-11-19T21:51:09.079Z,57.75
2022-11-19T21:53:36.687Z,55.83
2022-11-19T21:56:04.409Z,55.80
2022-11-19T21:58:31.798Z,57.30
2022-11-19T22:01:04.601Z,56.92
2022-11-19T22:03:33.569Z,73.85
2022-11-19T22:06:09.758Z,58.58
2022-11-19T22:08:40.277Z,50.53
2022-11-19T22:11:27.438Z,51.47
2022-11-19T22:13:59.198Z,49.97
2022-11-19T22:16:27.762Z,50.30
2022-11-19T22:18:55.277Z,54.67
2022-11-19T22:21:22.758Z,52.80
2022-11-19T22:24:00.062Z,53.78
2022-11-19T22:26:27.679Z,53.60
2022-11-19T22:28:56.838Z,52.17
2022-11-19T22:31:25.295Z,52.08
2022-11-19T22:33:54.105Z,52.65
2022-11-19T22:36:22.562Z,49.92
2022-11-19T22:38:51.639Z,50.25
2022-11-19T22:41:21.159Z,48.88
2022-11-19T22:43:49.518Z,54.83
2022-11-19T22:46:17.878Z,48.15
2022-11-19T22:48:45.319Z,44.72
2022-11-19T22:51:21.958Z,46.38
2022-11-19T22:53:51.799Z,53.85
2022-11-19T22:56:22.319Z,48.15
2022-11-19T22:58:50.208Z,47.00
2022-11-19T23:01:17.854Z,45.35
2022-11-19T23:03:47.766Z,46.80
2022-11-19T23:06:15.806Z,45.28
2022-11-19T23:08:44.492Z,46.67
2022-11-19T23:11:13.717Z,45.08
2022-11-19T23:13:42.998Z,48.30
2022-11-19T23:16:14.049Z,47.88
2022-11-19T23:18:47.038Z,45.85
2022-11-19T23:23:43.478Z,48.22
2022-11-19T23:26:21.720Z,48.08
2022-11-19T23:28:49.518Z,50.75
2022-11-19T23:31:31.941Z,49.92
2022-11-19T23:34:06.369Z,48.38
2022-11-19T23:36:37.131Z,52.50
2022-11-19T23:39:05.719Z,49.72
2022-11-19T23:41:34.637Z,59.17
2022-11-19T23:44:03.160Z,58.47
2022-11-19T23:46:37.045Z,56.28
2022-11-19T23:49:05.895Z,58.53
2022-11-19T23:51:40.408Z,59.58
2022-11-19T23:54:08.757Z,58.63
2022-11-19T23:56:36.618Z,58.90
2022-11-19T23:59:06.730Z,67.05
